createdAt,value
2022-10-25T00:01:30.370Z,77.40
2022-10-25T00:03:58.222Z,77.30
2022-10-25T00:06:25.670Z,77.40
2022-10-25T00:08:52.948Z,77.30
2022-10-25T00:11:28.411Z,77.30
2022-10-25T00:13:58.656Z,77.30
2022-10-25T00:16:30.611Z,77.20
2022-10-25T00:18:58.114Z,77.30
2022-10-25T00:21:26.112Z,77.40
2022-10-25T00:23:53.972Z,77.40
2022-10-25T00:26:21.920Z,77.50
2022-10-25T00:28:49.346Z,77.60
2022-10-25T00:31:17.332Z,77.70
2022-10-25T00:33:45.291Z,77.60
2022-10-25T00:36:17.932Z,77.60
2022-10-25T00:38:46.118Z,77.60
2022-10-25T00:41:16.273Z,77.50
2022-10-25T00:43:49.238Z,77.50
2022-10-25T00:46:20.150Z,77.50
2022-10-25T00:49:04.571Z,77.70
2022-10-25T00:51:37.299Z,77.70
2022-10-25T00:54:07.643Z,77.60
2022-10-25T00:56:38.208Z,77.80
2022-10-25T00:59:10.420Z,77.90
2022-10-25T01:01:38.694Z,78.00
2022-10-25T01:04:09.912Z,78.20
2022-10-25T01:06:47.560Z,78.20
2022-10-25T01:09:26.964Z,78.20
2022-10-25T01:11:54.471Z,78.20
2022-10-25T01:14:22.120Z,78.20
2022-10-25T01:17:08.428Z,78.30
2022-10-25T01:20:13.536Z,78.40
2022-10-25T01:23:03.215Z,78.50
2022-10-25T01:26:08.316Z,78.40
2022-10-25T01:29:04.186Z,78.50
2022-10-25T01:31:47.849Z,78.50
2022-10-25T01:34:24.140Z,78.50
2022-10-25T01:37:10.896Z,78.50
2022-10-25T01:39:48.043Z,78.70
2022-10-25T01:42:18.583Z,78.80
2022-10-25T01:45:07.624Z,78.90
2022-10-25T01:47:51.036Z,79.10
2022-10-25T01:50:24.780Z,79.10
2022-10-25T01:52:55.864Z,79.10
2022-10-25T01:55:31.227Z,79.20
2022-10-25T01:58:10.968Z,79.40
2022-10-25T02:00:54.819Z,79.30
2022-10-25T02:03:22.211Z,79.40
2022-10-25T02:06:00.590Z,79.40
2022-10-25T02:08:42.618Z,79.50
2022-10-25T02:11:31.251Z,79.70
2022-10-25T02:14:45.961Z,79.50
2022-10-25T02:17:22.999Z,79.70
2022-10-25T02:19:54.504Z,79.60
2022-10-25T02:22:25.799Z,79.50
2022-10-25T02:24:55.520Z,79.60
2022-10-25T02:27:25.672Z,79.60
2022-10-25T02:29:54.912Z,79.70
2022-10-25T02:32:22.636Z,79.50
2022-10-25T02:34:50.857Z,79.40
2022-10-25T02:37:18.896Z,79.30
2022-10-25T02:39:46.516Z,79.20
2022-10-25T02:42:13.820Z,79.30
2022-10-25T02:44:41.560Z,79.20
2022-10-25T02:47:09.185Z,79.20
2022-10-25T02:49:36.757Z,79.30
2022-10-25T02:52:04.401Z,79.30
2022-10-25T02:54:31.655Z,79.30
2022-10-25T02:56:59.155Z,79.40
2022-10-25T02:59:26.373Z,79.40
2022-10-25T03:01:53.717Z,79.40
2022-10-25T03:04:21.972Z,79.40
2022-10-25T03:06:49.527Z,79.40
2022-10-25T03:09:17.023Z,79.40
2022-10-25T03:11:44.468Z,79.40
2022-10-25T03:14:11.660Z,79.40
2022-10-25T03:16:39.336Z,80.10
2022-10-25T03:19:06.787Z,79.40
2022-10-25T03:21:37.519Z,79.50
2022-10-25T03:24:07.642Z,79.50
2022-10-25T03:26:34.945Z,79.60
2022-10-25T03:29:02.480Z,79.60
2022-10-25T03:31:29.959Z,79.60
2022-10-25T03:33:57.513Z,79.80
2022-10-25T03:36:25.007Z,79.80
2022-10-25T03:38:52.228Z,79.80
2022-10-25T03:41:19.692Z,79.70
2022-10-25T03:43:46.883Z,79.60
2022-10-25T03:46:14.388Z,79.60
2022-10-25T03:48:42.582Z,79.60
2022-10-25T03:51:09.935Z,79.60
2022-10-25T03:53:37.225Z,79.70
2022-10-25T03:56:04.839Z,80.50
2022-10-25T03:58:32.071Z,79.70
2022-10-25T04:01:00.008Z,79.60
2022-10-25T04:03:27.739Z,79.50
2022-10-25T04:05:55.313Z,79.50
2022-10-25T04:08:22.540Z,79.50
2022-10-25T04:10:49.839Z,79.40
2022-10-25T04:13:17.606Z,79.10
2022-10-25T04:15:45.031Z,78.90
2022-10-25T04:18:12.631Z,78.70
2022-10-25T04:20:40.030Z,78.70
2022-10-25T04:23:07.882Z,78.70
2022-10-25T04:25:35.672Z,78.70
2022-10-25T04:28:03.476Z,78.50
2022-10-25T04:30:36.437Z,78.60
2022-10-25T04:33:06.437Z,78.60
2022-10-25T04:35:34.117Z,78.70
2022-10-25T04:38:01.444Z,78.50
2022-10-25T04:40:28.814Z,78.40
2022-10-25T04:42:56.819Z,78.20
2022-10-25T04:45:24.511Z,78.00
2022-10-25T04:47:51.728Z,78.10
2022-10-25T04:50:19.170Z,78.10
2022-10-25T04:52:47.074Z,78.00
2022-10-25T04:55:15.114Z,77.80
2022-10-25T04:57:42.475Z,77.90
2022-10-25T05:00:10.875Z,78.10
2022-10-25T05:02:38.155Z,78.00
2022-10-25T05:05:06.340Z,78.10
2022-10-25T05:07:33.675Z,78.30
2022-10-25T05:10:01.041Z,78.30
2022-10-25T05:12:28.362Z,78.30
2022-10-25T05:14:55.667Z,78.30
2022-10-25T05:17:23.086Z,78.30
2022-10-25T05:19:50.435Z,78.30
2022-10-25T05:22:17.953Z,78.10
2022-10-25T05:24:45.544Z,78.20
2022-10-25T05:27:13.320Z,78.80
2022-10-25T05:29:41.095Z,78.70
2022-10-25T05:32:08.803Z,77.70
2022-10-25T05:34:36.288Z,77.70
2022-10-25T05:37:03.973Z,77.60
2022-10-25T05:39:31.683Z,77.50
2022-10-25T05:42:00.161Z,78.20
2022-10-25T05:44:27.772Z,77.30
2022-10-25T05:46:55.807Z,77.30
2022-10-25T05:49:23.421Z,77.30
2022-10-25T05:51:50.843Z,77.40
2022-10-25T05:54:18.505Z,77.50
2022-10-25T05:56:46.011Z,77.50
2022-10-25T05:59:14.830Z,77.50
2022-10-25T06:01:44.970Z,77.50
2022-10-25T06:04:13.345Z,77.50
2022-10-25T06:06:42.032Z,77.60
2022-10-25T06:09:10.861Z,77.70
2022-10-25T06:11:39.136Z,77.70
2022-10-25T06:14:07.516Z,77.70
2022-10-25T06:16:37.799Z,77.60
2022-10-25T06:19:05.233Z,77.40
2022-10-25T06:21:32.687Z,77.40
2022-10-25T06:24:00.355Z,77.30
2022-10-25T06:26:30.148Z,77.30
2022-10-25T06:29:00.804Z,77.10
2022-10-25T06:31:29.449Z,77.00
2022-10-25T06:33:58.329Z,77.10
2022-10-25T06:36:27.840Z,77.00
2022-10-25T06:38:55.267Z,76.90
2022-10-25T06:41:25.257Z,76.90
2022-10-25T06:43:52.826Z,78.00
2022-10-25T06:46:24.856Z,77.00
2022-10-25T06:48:55.123Z,77.20
2022-10-25T06:51:23.891Z,77.10
2022-10-25T06:53:55.351Z,77.20
2022-10-25T06:56:23.321Z,77.00
2022-10-25T06:58:51.067Z,77.10
2022-10-25T07:01:20.471Z,77.00
2022-10-25T07:03:50.687Z,77.00
2022-10-25T07:06:29.682Z,76.90
2022-10-25T07:09:01.215Z,76.90
2022-10-25T07:11:31.360Z,76.90
2022-10-25T07:14:00.355Z,76.60
2022-10-25T07:16:29.001Z,76.50
2022-10-25T07:19:04.045Z,76.30
2022-10-25T07:21:32.562Z,76.20
2022-10-25T07:24:00.496Z,76.20
2022-10-25T07:26:31.372Z,76.20
2022-10-25T07:29:00.346Z,76.40
2022-10-25T07:31:33.631Z,76.30
2022-10-25T07:34:03.307Z,76.30
2022-10-25T07:36:30.997Z,75.90
2022-10-25T07:38:58.561Z,75.90
2022-10-25T07:41:26.345Z,75.70
2022-10-25T07:43:53.880Z,75.60
2022-10-25T07:46:21.673Z,75.50
2022-10-25T07:48:49.091Z,75.70
2022-10-25T07:51:17.614Z,75.50
2022-10-25T07:53:45.163Z,75.30
2022-10-25T07:56:22.235Z,75.30
2022-10-25T07:58:52.301Z,75.20
2022-10-25T08:01:26.244Z,75.30
2022-10-25T08:03:55.091Z,75.30
2022-10-25T08:06:24.399Z,74.70
2022-10-25T08:08:52.815Z,74.70
2022-10-25T08:11:20.749Z,74.90
2022-10-25T08:13:50.196Z,74.80
2022-10-25T08:16:18.190Z,74.90
2022-10-25T08:18:46.027Z,74.70
2022-10-25T08:21:13.590Z,74.80
2022-10-25T08:23:41.012Z,74.80
2022-10-25T08:26:08.714Z,74.80
2022-10-25T08:28:36.278Z,75.10
2022-10-25T08:31:04.650Z,75.20
2022-10-25T08:33:33.496Z,75.10
2022-10-25T08:36:02.620Z,75.20
2022-10-25T08:38:30.479Z,75.40
2022-10-25T08:41:21.557Z,75.70
2022-10-25T08:46:41.105Z,76.00
2022-10-25T08:49:29.916Z,76.10
2022-10-25T08:51:59.354Z,76.10
2022-10-25T08:54:35.298Z,76.10
2022-10-25T08:57:23.053Z,76.30
2022-10-25T08:59:53.872Z,77.00
2022-10-25T09:02:33.895Z,77.60
2022-10-25T09:05:01.875Z,78.10
2022-10-25T09:07:43.761Z,78.20
2022-10-25T09:10:15.722Z,78.20
2022-10-25T09:13:19.819Z,78.10
2022-10-25T09:16:09.344Z,78.00
2022-10-25T09:18:54.886Z,77.90
2022-10-25T09:21:40.108Z,77.40
2022-10-25T09:24:24.681Z,76.80
2022-10-25T09:26:55.953Z,76.70
2022-10-25T09:29:30.778Z,76.50
2022-10-25T09:32:00.573Z,76.00
2022-10-25T09:34:35.600Z,76.30
2022-10-25T09:37:26.680Z,76.40
2022-10-25T09:40:00.803Z,76.50
2022-10-25T09:42:41.369Z,76.80
2022-10-25T09:45:32.311Z,76.50
2022-10-25T09:48:46.590Z,75.80
2022-10-25T09:51:16.679Z,75.90
2022-10-25T09:53:45.704Z,75.60
2022-10-25T09:56:13.084Z,75.50
2022-10-25T09:58:42.719Z,75.80
2022-10-25T10:01:24.646Z,76.20
2022-10-25T10:03:55.825Z,76.30
2022-10-25T10:06:33.461Z,76.60
2022-10-25T10:09:05.739Z,76.60
2022-10-25T10:11:34.476Z,76.90
2022-10-25T10:14:06.154Z,76.60
2022-10-25T10:16:45.074Z,76.50
2022-10-25T10:19:21.772Z,76.50
2022-10-25T10:21:52.452Z,76.60
2022-10-25T10:24:24.716Z,76.90
2022-10-25T10:26:57.079Z,77.20
2022-10-25T10:29:25.926Z,77.30
2022-10-25T10:31:56.441Z,77.10
2022-10-25T10:34:24.113Z,77.00
2022-10-25T10:37:01.732Z,77.00
2022-10-25T10:39:29.208Z,76.70
2022-10-25T10:42:15.168Z,76.50
2022-10-25T10:45:01.739Z,76.50
2022-10-25T10:47:35.839Z,76.50
2022-10-25T10:50:32.614Z,76.60
2022-10-25T10:53:01.984Z,76.40
2022-10-25T10:55:43.811Z,75.90
2022-10-25T10:58:29.535Z,75.90
2022-10-25T11:01:04.849Z,75.60
2022-10-25T11:03:58.922Z,75.30
2022-10-25T11:06:34.713Z,74.80
2022-10-25T11:09:16.870Z,74.10
2022-10-25T11:12:07.864Z,74.10
2022-10-25T11:14:35.336Z,74.10
2022-10-25T11:17:23.696Z,74.10
2022-10-25T11:20:05.595Z,74.80
2022-10-25T11:22:41.653Z,74.30
2022-10-25T11:25:12.092Z,74.00
2022-10-25T11:28:17.260Z,73.80
2022-10-25T11:31:10.366Z,73.00
2022-10-25T11:33:50.943Z,73.20
2022-10-25T11:37:03.027Z,73.10
2022-10-25T11:39:43.694Z,72.80
2022-10-25T11:45:20.957Z,72.40
2022-10-25T11:48:10.199Z,71.80
2022-10-25T11:50:44.645Z,71.30
2022-10-25T11:53:45.940Z,71.50
2022-10-25T11:56:36.876Z,69.70
2022-10-25T11:59:25.438Z,69.10
2022-10-25T12:01:58.373Z,67.60
2022-10-25T12:04:53.428Z,68.50
2022-10-25T12:07:49.426Z,67.60
2022-10-25T12:10:29.292Z,66.00
2022-10-25T12:13:04.538Z,65.20
2022-10-25T12:15:53.696Z,65.80
2022-10-25T12:18:28.822Z,66.00
2022-10-25T12:20:56.677Z,65.70
2022-10-25T12:23:26.184Z,66.60
2022-10-25T12:25:58.374Z,66.60
2022-10-25T12:28:32.854Z,67.30
2022-10-25T12:31:28.966Z,67.20
2022-10-25T12:33:56.807Z,67.70
2022-10-25T12:36:47.685Z,66.60
2022-10-25T12:39:45.464Z,66.10
2022-10-25T12:42:57.034Z,66.40
2022-10-25T12:45:27.279Z,65.50
2022-10-25T12:48:26.896Z,65.10
2022-10-25T12:51:33.287Z,65.60
2022-10-25T12:54:23.518Z,66.10
2022-10-25T12:57:09.779Z,66.10
2022-10-25T13:00:16.653Z,66.40
2022-10-25T13:03:06.663Z,66.20
2022-10-25T13:20:20.482Z,64.10
2022-10-25T13:22:48.204Z,64.40
2022-10-25T13:25:58.287Z,64.20
2022-10-25T13:28:35.292Z,64.30
2022-10-25T13:31:34.176Z,64.30
2022-10-25T13:34:13.443Z,65.40
2022-10-25T13:37:02.450Z,64.60
2022-10-25T13:39:37.199Z,64.30
2022-10-25T13:42:16.712Z,65.00
2022-10-25T13:45:03.770Z,65.00
2022-10-25T13:47:49.283Z,66.30
2022-10-25T13:50:30.776Z,63.90
2022-10-25T13:53:20.106Z,63.20
2022-10-25T13:55:57.807Z,62.40
2022-10-25T13:58:32.513Z,62.10
2022-10-25T14:01:15.977Z,61.60
2022-10-25T14:04:01.451Z,61.80
2022-10-25T14:06:43.597Z,61.40
2022-10-25T14:09:37.271Z,61.20
2022-10-25T14:12:19.354Z,61.60
2022-10-25T14:14:47.573Z,61.50
2022-10-25T14:17:39.657Z,61.50
2022-10-25T14:20:26.946Z,61.40
2022-10-25T14:23:00.359Z,61.10
2022-10-25T14:25:35.426Z,60.80
2022-10-25T14:28:27.562Z,60.60
2022-10-25T14:30:56.693Z,60.60
2022-10-25T14:33:29.586Z,60.40
2022-10-25T14:36:06.155Z,59.70
2022-10-25T14:38:58.976Z,59.70
2022-10-25T14:41:32.391Z,59.80
2022-10-25T14:44:01.048Z,60.70
2022-10-25T14:46:30.322Z,61.20
2022-10-25T14:48:59.335Z,61.00
2022-10-25T14:51:34.053Z,61.20
2022-10-25T14:54:16.579Z,60.70
2022-10-25T14:56:45.030Z,61.50
2022-10-25T14:59:30.206Z,61.40
2022-10-25T15:02:04.399Z,60.80
2022-10-25T15:04:39.940Z,61.40
2022-10-25T15:07:16.624Z,61.30
2022-10-25T15:09:55.457Z,61.50
2022-10-25T15:12:33.899Z,61.40
2022-10-25T15:15:40.411Z,61.60
2022-10-25T15:18:36.739Z,62.00
2022-10-25T15:21:09.245Z,61.60
2022-10-25T15:23:38.180Z,61.90
2022-10-25T15:26:38.208Z,61.80
2022-10-25T15:29:06.689Z,62.30
2022-10-25T15:31:34.154Z,62.10
2022-10-25T15:34:03.713Z,62.30
2022-10-25T15:36:33.553Z,62.50
2022-10-25T15:39:14.171Z,62.70
2022-10-25T15:41:43.318Z,62.90
2022-10-25T15:44:10.953Z,63.10
2022-10-25T15:46:38.638Z,63.10
2022-10-25T15:49:08.165Z,63.30
2022-10-25T15:51:41.883Z,63.40
2022-10-25T15:54:17.985Z,63.50
2022-10-25T15:56:45.701Z,63.60
2022-10-25T15:59:14.008Z,63.80
2022-10-25T16:01:43.936Z,63.80
2022-10-25T16:04:17.265Z,63.90
2022-10-25T16:06:45.652Z,64.20
2022-10-25T16:09:13.076Z,64.40
2022-10-25T16:11:46.288Z,64.40
2022-10-25T16:14:21.255Z,64.60
2022-10-25T16:16:49.258Z,64.70
2022-10-25T16:19:18.149Z,65.00
2022-10-25T16:21:45.876Z,65.40
2022-10-25T16:24:14.236Z,65.70
2022-10-25T16:26:44.936Z,66.00
2022-10-25T16:29:17.940Z,66.50
2022-10-25T16:31:45.874Z,66.70
2022-10-25T16:34:15.422Z,67.00
2022-10-25T16:36:43.861Z,67.10
2022-10-25T16:39:11.600Z,67.20
2022-10-25T16:41:41.771Z,67.70
2022-10-25T16:44:12.072Z,67.80
2022-10-25T16:46:40.141Z,68.20
2022-10-25T16:49:09.418Z,68.30
2022-10-25T16:51:38.394Z,68.40
2022-10-25T16:54:06.647Z,68.90
2022-10-25T16:56:34.317Z,69.20
2022-10-25T16:59:02.048Z,69.60
2022-10-25T17:01:33.873Z,69.80
2022-10-25T17:04:03.717Z,69.80
2022-10-25T17:06:46.469Z,69.90
2022-10-25T17:09:14.149Z,70.30
2022-10-25T17:11:41.626Z,70.30
2022-10-25T17:14:09.915Z,70.70
2022-10-25T17:16:40.371Z,71.80
2022-10-25T17:19:10.155Z,72.00
2022-10-25T17:21:38.056Z,71.30
2022-10-25T17:24:06.727Z,71.30
2022-10-25T17:26:34.095Z,71.40
2022-10-25T17:29:01.648Z,71.30
2022-10-25T17:31:29.503Z,71.50
2022-10-25T17:33:56.917Z,71.50
2022-10-25T17:36:25.907Z,71.80
2022-10-25T17:38:54.323Z,71.80
2022-10-25T17:41:23.004Z,71.80
2022-10-25T17:43:53.246Z,72.00
2022-10-25T17:46:26.134Z,72.00
2022-10-25T17:48:55.511Z,72.00
2022-10-25T17:51:23.577Z,72.10
2022-10-25T17:53:54.242Z,72.40
2022-10-25T17:56:23.657Z,72.60
2022-10-25T17:58:51.595Z,72.50
2022-10-25T18:01:22.051Z,72.70
2022-10-25T18:03:49.931Z,73.10
2022-10-25T18:06:19.991Z,73.10
2022-10-25T18:08:55.643Z,73.00
2022-10-25T18:11:25.840Z,73.60
2022-10-25T18:13:56.063Z,73.70
2022-10-25T18:16:27.482Z,74.00
2022-10-25T18:18:59.953Z,73.80
2022-10-25T18:21:27.884Z,73.80
2022-10-25T18:23:56.905Z,74.00
2022-10-25T18:26:25.442Z,74.10
2022-10-25T18:28:53.591Z,74.00
2022-10-25T18:31:21.334Z,73.90
2022-10-25T18:33:48.792Z,73.80
2022-10-25T18:36:19.309Z,73.80
2022-10-25T18:38:50.991Z,74.30
2022-10-25T18:41:29.765Z,74.00
2022-10-25T18:43:57.920Z,74.40
2022-10-25T18:46:29.216Z,74.10
2022-10-25T18:48:56.811Z,74.20
2022-10-25T18:51:26.687Z,74.10
2022-10-25T18:53:55.378Z,74.10
2022-10-25T18:56:23.428Z,75.00
2022-10-25T18:58:51.047Z,74.40
2022-10-25T19:01:22.843Z,74.30
2022-10-25T19:03:51.315Z,74.40
2022-10-25T19:06:19.620Z,74.30
2022-10-25T19:08:49.027Z,74.50
2022-10-25T19:11:16.678Z,74.70
2022-10-25T19:13:47.567Z,74.50
2022-10-25T19:16:18.352Z,74.50
2022-10-25T19:18:45.795Z,74.50
2022-10-25T19:21:16.811Z,74.70
2022-10-25T19:23:46.140Z,74.90
2022-10-25T19:26:17.677Z,74.80
2022-10-25T19:28:45.457Z,74.90
2022-10-25T19:31:17.595Z,74.90
2022-10-25T19:33:49.618Z,75.30
2022-10-25T19:36:17.551Z,75.60
2022-10-25T19:38:50.680Z,75.90
2022-10-25T19:41:20.793Z,75.70
2022-10-25T19:43:48.600Z,75.40
2022-10-25T19:46:16.703Z,75.20
2022-10-25T19:48:44.965Z,75.10
2022-10-25T19:51:15.341Z,74.90
2022-10-25T19:53:43.107Z,75.00
2022-10-25T19:56:22.106Z,75.10
2022-10-25T19:58:50.325Z,75.30
2022-10-25T20:01:27.087Z,75.00
2022-10-25T20:03:57.543Z,75.30
2022-10-25T20:06:32.979Z,75.10
2022-10-25T20:09:01.563Z,75.30
2022-10-25T20:11:29.276Z,75.20
2022-10-25T20:13:58.641Z,75.50
2022-10-25T20:16:26.895Z,75.80
2022-10-25T20:18:55.063Z,75.90
2022-10-25T20:21:25.232Z,76.00
2022-10-25T20:23:58.034Z,75.80
2022-10-25T20:26:34.675Z,75.70
2022-10-25T20:29:04.783Z,75.70
2022-10-25T20:31:33.503Z,75.70
2022-10-25T20:34:02.523Z,75.60
2022-10-25T20:36:30.191Z,75.50
2022-10-25T20:38:57.516Z,75.50
2022-10-25T20:41:27.869Z,75.50
2022-10-25T20:43:59.854Z,75.50
2022-10-25T20:46:28.492Z,75.50
2022-10-25T20:48:57.571Z,75.60
2022-10-25T20:51:25.151Z,75.50
2022-10-25T20:53:53.144Z,75.60
2022-10-25T20:56:21.473Z,75.80
2022-10-25T20:58:49.004Z,76.00
2022-10-25T21:01:16.839Z,75.90
2022-10-25T21:03:44.152Z,75.80
2022-10-25T21:06:12.681Z,75.90
2022-10-25T21:08:40.505Z,75.80
2022-10-25T21:11:11.538Z,76.00
2022-10-25T21:13:39.403Z,76.00
2022-10-25T21:16:12.289Z,76.10
2022-10-25T21:18:40.740Z,76.30
2022-10-25T21:21:17.725Z,76.60
2022-10-25T21:23:46.708Z,76.90
2022-10-25T21:26:14.162Z,76.90
2022-10-25T21:28:41.759Z,76.80
2022-10-25T21:31:11.749Z,76.90
2022-10-25T21:33:39.608Z,76.80
2022-10-25T21:36:12.255Z,76.80
2022-10-25T21:38:40.493Z,77.00
2022-10-25T21:41:20.454Z,76.90
2022-10-25T21:43:49.403Z,77.10
2022-10-25T21:46:18.579Z,77.10
2022-10-25T21:48:50.655Z,77.20
2022-10-25T21:51:19.781Z,77.20
2022-10-25T21:53:47.915Z,77.10
2022-10-25T21:56:20.496Z,77.20
2022-10-25T21:58:50.721Z,77.30
2022-10-25T22:01:23.639Z,77.30
2022-10-25T22:03:52.326Z,77.20
2022-10-25T22:06:21.844Z,77.10
2022-10-25T22:08:50.185Z,77.00
2022-10-25T22:11:20.235Z,77.00
2022-10-25T22:13:53.103Z,77.00
2022-10-25T22:16:20.982Z,77.10
2022-10-25T22:18:54.252Z,77.10
2022-10-25T22:21:22.128Z,77.20
2022-10-25T22:23:50.033Z,77.00
2022-10-25T22:26:19.883Z,76.90
2022-10-25T22:28:52.377Z,77.00
2022-10-25T22:31:21.467Z,77.10
2022-10-25T22:33:54.752Z,76.90
2022-10-25T22:36:23.864Z,76.90
2022-10-25T22:38:51.464Z,76.90
2022-10-25T22:41:21.794Z,76.90
2022-10-25T22:43:49.667Z,77.10
2022-10-25T22:46:24.024Z,77.00
2022-10-25T22:48:53.641Z,77.10
2022-10-25T22:51:22.756Z,77.10
2022-10-25T22:53:50.403Z,77.10
2022-10-25T22:56:25.683Z,77.30
2022-10-25T22:58:55.684Z,77.50
2022-10-25T23:01:26.019Z,77.40
2022-10-25T23:03:55.751Z,77.40
2022-10-25T23:06:26.580Z,77.30
2022-10-25T23:08:56.039Z,77.20
2022-10-25T23:11:29.151Z,77.00
2022-10-25T23:13:57.722Z,77.00
2022-10-25T23:16:25.765Z,77.20
2022-10-25T23:18:53.814Z,77.20
2022-10-25T23:21:24.340Z,77.10
2022-10-25T23:23:53.524Z,77.20
2022-10-25T23:26:32.523Z,77.50
2022-10-25T23:29:00.671Z,77.70
2022-10-25T23:31:29.254Z,77.60
2022-10-25T23:33:58.587Z,77.50
2022-10-25T23:36:28.851Z,77.50
2022-10-25T23:38:57.898Z,77.50
2022-10-25T23:41:25.196Z,77.60
2022-10-25T23:43:52.643Z,77.70
2022-10-25T23:46:20.382Z,77.80
2022-10-25T23:48:48.129Z,77.70
2022-10-25T23:51:17.583Z,77.80
2022-10-25T23:53:45.573Z,77.80
2022-10-25T23:56:13.691Z,78.00
2022-10-25T23:58:41.643Z,78.20
